createdAt,value
2023-06-14T00:01:42.874Z,30.09
2023-06-14T00:06:50.280Z,30.08
2023-06-14T00:11:52.304Z,30.05
2023-06-14T00:16:54.561Z,30.07
2023-06-14T00:21:56.762Z,30.06
2023-06-14T00:26:58.863Z,30.06
2023-06-14T00:32:01.111Z,30.05
2023-06-14T00:37:03.388Z,30.07
2023-06-14T00:42:06.762Z,30.06
2023-06-14T00:47:08.710Z,30.09
2023-06-14T00:52:13.779Z,30.08
2023-06-14T00:57:15.861Z,30.06
2023-06-14T01:02:19.458Z,30.08
2023-06-14T01:07:30.739Z,30.11
2023-06-14T01:12:40.451Z,30.09
2023-06-14T01:17:45.136Z,30.07
2023-06-14T01:22:54.982Z,30.06
2023-06-14T01:28:02.883Z,30.07
2023-06-14T01:33:06.734Z,30.06
2023-06-14T01:38:09.430Z,30.08
2023-06-14T01:43:13.005Z,30.08
2023-06-14T01:48:15.872Z,30.07
2023-06-14T01:53:17.975Z,30.03
2023-06-14T01:58:20.160Z,30.06
2023-06-14T02:03:22.868Z,30.05
2023-06-14T02:08:25.168Z,30.00
2023-06-14T02:13:27.275Z,30.05
2023-06-14T02:18:29.699Z,30.02
2023-06-14T02:23:33.718Z,30.03
2023-06-14T02:28:37.410Z,30.05
2023-06-14T02:33:39.550Z,30.03
2023-06-14T02:38:42.607Z,30.03
2023-06-14T02:43:44.670Z,30.07
2023-06-14T02:48:46.612Z,30.03
2023-06-14T02:53:49.108Z,30.02
2023-06-14T02:58:51.998Z,30.04
2023-06-14T03:03:54.143Z,30.00
2023-06-14T03:08:56.451Z,30.04
2023-06-14T03:13:58.800Z,30.05
2023-06-14T03:19:00.828Z,29.99
2023-06-14T03:24:04.930Z,30.00
2023-06-14T03:29:06.956Z,30.03
2023-06-14T03:34:08.971Z,30.01
2023-06-14T03:39:11.050Z,30.03
2023-06-14T03:44:13.097Z,29.99
2023-06-14T03:49:15.308Z,29.96
2023-06-14T03:55:32.086Z,29.94
2023-06-14T03:59:39.337Z,29.95
2023-06-14T04:04:44.807Z,29.96
2023-06-14T04:09:47.723Z,29.95
2023-06-14T04:14:49.881Z,29.93
2023-06-14T04:19:52.076Z,29.94
2023-06-14T04:25:04.468Z,29.95
2023-06-14T04:30:08.799Z,29.97
2023-06-14T04:35:11.866Z,29.96
2023-06-14T04:40:14.004Z,29.96
2023-06-14T04:45:17.195Z,29.95
2023-06-14T04:50:19.712Z,29.91
2023-06-14T04:55:22.401Z,29.93
2023-06-14T05:00:24.877Z,29.92
2023-06-14T05:05:27.031Z,29.98
2023-06-14T05:10:29.173Z,29.94
2023-06-14T05:15:31.468Z,29.96
2023-06-14T05:20:33.562Z,29.94
2023-06-14T05:25:35.764Z,29.96
2023-06-14T05:30:38.806Z,29.92
2023-06-14T05:35:40.791Z,29.92
2023-06-14T05:40:42.808Z,29.96
2023-06-14T05:45:44.968Z,29.93
2023-06-14T05:50:47.276Z,29.92
2023-06-14T05:55:49.571Z,29.91
2023-06-14T06:00:52.274Z,29.93
2023-06-14T06:05:54.220Z,29.90
2023-06-14T06:10:56.357Z,29.88
2023-06-14T06:15:58.532Z,29.86
2023-06-14T06:21:00.605Z,29.75
2023-06-14T06:26:02.754Z,29.68
2023-06-14T06:31:05.265Z,29.58
2023-06-14T06:36:07.926Z,29.61
2023-06-14T06:41:09.991Z,29.66
2023-06-14T06:46:12.144Z,29.69
2023-06-14T06:51:14.792Z,29.68
2023-06-14T06:56:16.868Z,29.72
2023-06-14T07:01:20.240Z,29.66
2023-06-14T07:06:22.880Z,29.65
2023-06-14T07:11:24.780Z,29.74
2023-06-14T07:16:27.215Z,29.71
2023-06-14T07:21:29.331Z,29.61
2023-06-14T07:26:31.690Z,29.61
2023-06-14T07:31:33.674Z,29.67
2023-06-14T07:36:36.099Z,29.61
2023-06-14T07:41:38.203Z,29.50
2023-06-14T07:46:40.305Z,29.47
2023-06-14T07:51:42.177Z,29.49
2023-06-14T07:56:45.500Z,29.53
2023-06-14T08:01:48.534Z,29.46
2023-06-14T08:06:50.857Z,29.41
2023-06-14T08:11:53.099Z,29.55
2023-06-14T08:16:55.339Z,29.71
2023-06-14T08:21:57.705Z,29.74
2023-06-14T08:27:02.776Z,29.74
2023-06-14T08:32:05.118Z,29.68
2023-06-14T08:37:07.946Z,29.73
2023-06-14T08:42:14.806Z,29.77
2023-06-14T08:47:28.177Z,29.78
2023-06-14T08:52:35.135Z,29.76
2023-06-14T08:57:38.927Z,29.84
2023-06-14T09:02:44.767Z,29.86
2023-06-14T09:07:47.168Z,29.86
2023-06-14T09:12:49.826Z,29.91
2023-06-14T09:17:52.954Z,29.71
2023-06-14T09:22:55.362Z,29.61
2023-06-14T09:27:57.347Z,29.57
2023-06-14T09:33:01.829Z,29.63
2023-06-14T09:38:04.107Z,29.61
2023-06-14T09:43:11.652Z,29.65
2023-06-14T09:48:19.402Z,29.62
2023-06-14T09:53:24.525Z,29.63
2023-06-14T09:58:29.873Z,29.59
2023-06-14T10:03:49.879Z,29.63
2023-06-14T10:08:58.894Z,29.62
2023-06-14T10:14:01.767Z,29.65
2023-06-14T10:19:08.416Z,29.59
2023-06-14T10:24:14.521Z,29.64
2023-06-14T10:29:16.826Z,29.61
2023-06-14T10:34:26.420Z,29.62
2023-06-14T10:39:28.637Z,29.66
2023-06-14T10:44:30.356Z,29.66
2023-06-14T10:49:43.457Z,29.59
2023-06-14T10:55:06.415Z,29.61
2023-06-14T11:00:14.820Z,29.65
2023-06-14T11:05:17.555Z,29.59
2023-06-14T11:10:26.940Z,29.53
2023-06-14T11:15:32.625Z,29.62
2023-06-14T11:20:36.801Z,29.62
2023-06-14T11:25:41.380Z,29.63
2023-06-14T11:30:43.602Z,29.61
2023-06-14T11:35:45.809Z,29.61
2023-06-14T11:40:48.060Z,29.64
2023-06-14T11:46:00.720Z,29.61
2023-06-14T11:51:10.216Z,29.62
2023-06-14T11:56:12.734Z,29.61
2023-06-14T12:01:21.093Z,29.61
2023-06-14T12:06:34.679Z,29.70
2023-06-14T12:11:37.697Z,29.72
2023-06-14T12:16:41.557Z,29.66
2023-06-14T12:21:48.687Z,29.66
2023-06-14T12:26:54.111Z,29.70
2023-06-14T12:31:58.337Z,29.71
2023-06-14T12:37:00.776Z,29.69
2023-06-14T12:42:05.434Z,29.61
2023-06-14T12:47:08.065Z,29.73
2023-06-14T12:52:10.334Z,29.74
2023-06-14T12:57:12.635Z,29.70
2023-06-14T13:02:19.294Z,29.75
2023-06-14T13:07:21.479Z,29.68
2023-06-14T13:12:23.510Z,29.73
2023-06-14T13:17:26.241Z,29.73
2023-06-14T13:22:28.388Z,29.75
2023-06-14T13:27:30.536Z,29.77
2023-06-14T13:32:32.978Z,29.71
2023-06-14T13:37:35.096Z,29.76
2023-06-14T13:42:37.578Z,29.79
2023-06-14T13:47:40.241Z,29.87
2023-06-14T13:52:42.416Z,29.77
2023-06-14T13:57:44.919Z,29.79
2023-06-14T14:02:47.120Z,29.82
2023-06-14T14:07:49.377Z,29.90
2023-06-14T14:12:52.351Z,29.88
2023-06-14T14:17:56.114Z,29.88
2023-06-14T14:22:58.430Z,29.89
2023-06-14T14:28:00.381Z,29.91
2023-06-14T14:33:02.392Z,29.92
2023-06-14T14:38:07.119Z,29.91
2023-06-14T14:43:09.292Z,29.92
2023-06-14T14:48:11.512Z,29.89
2023-06-14T14:53:14.607Z,29.90
2023-06-14T14:58:19.838Z,29.93
2023-06-14T15:03:21.977Z,29.97
2023-06-14T15:08:24.090Z,29.96
2023-06-14T15:13:26.245Z,29.93
2023-06-14T15:18:28.373Z,29.92
2023-06-14T15:23:30.520Z,29.88
2023-06-14T15:28:34.087Z,29.87
2023-06-14T15:33:36.197Z,29.90
2023-06-14T15:38:38.255Z,29.90
2023-06-14T15:43:40.283Z,29.92
2023-06-14T15:48:42.259Z,29.90
2023-06-14T15:53:44.388Z,29.91
2023-06-14T15:58:46.445Z,29.86
2023-06-14T16:03:48.474Z,29.85
2023-06-14T16:08:50.922Z,29.84
2023-06-14T16:13:52.851Z,29.87
2023-06-14T16:18:54.912Z,29.90
2023-06-14T16:23:56.833Z,29.88
2023-06-14T16:28:58.838Z,29.91
2023-06-14T16:34:00.931Z,29.84
2023-06-14T16:39:02.922Z,29.85
2023-06-14T16:44:06.514Z,29.86
2023-06-14T16:49:08.586Z,29.88
2023-06-14T16:54:10.844Z,29.87
2023-06-14T16:59:12.899Z,29.86
2023-06-14T17:04:15.029Z,29.88
2023-06-14T17:09:17.867Z,29.86
2023-06-14T17:14:19.942Z,29.46
2023-06-14T17:19:22.131Z,28.61
2023-06-14T17:24:25.907Z,28.82
2023-06-14T17:29:28.635Z,28.31
2023-06-14T17:34:30.701Z,28.36
2023-06-14T17:39:32.619Z,28.40
2023-06-14T17:44:34.704Z,28.17
2023-06-14T17:49:36.685Z,28.49
2023-06-14T17:54:38.748Z,28.50
2023-06-14T17:59:40.954Z,28.13
2023-06-14T18:04:42.785Z,28.38
2023-06-14T18:09:48.393Z,28.32
2023-06-14T18:14:50.707Z,28.23
2023-06-14T18:19:52.788Z,28.34
2023-06-14T18:24:54.730Z,28.95
2023-06-14T18:29:57.270Z,28.66
2023-06-14T18:34:59.273Z,28.58
2023-06-14T18:40:01.645Z,28.79
2023-06-14T18:45:04.007Z,28.33
2023-06-14T18:50:06.521Z,28.16
2023-06-14T18:55:09.005Z,28.06
2023-06-14T19:00:11.479Z,28.16
2023-06-14T19:05:13.628Z,28.37
2023-06-14T19:10:15.840Z,28.43
2023-06-14T19:15:18.660Z,28.79
2023-06-14T19:20:20.924Z,28.56
2023-06-14T19:25:22.963Z,28.75
2023-06-14T19:30:25.226Z,28.45
2023-06-14T19:35:27.357Z,28.68
2023-06-14T19:40:29.260Z,28.63
2023-06-14T19:45:33.857Z,28.70
2023-06-14T19:50:36.602Z,28.70
2023-06-14T19:55:38.522Z,28.67
2023-06-14T20:00:40.661Z,29.03
2023-06-14T20:05:43.263Z,29.09
2023-06-14T20:10:45.366Z,29.12
2023-06-14T20:15:47.607Z,29.18
2023-06-14T20:20:51.659Z,29.21
2023-06-14T20:25:53.625Z,29.19
2023-06-14T20:30:55.534Z,28.87
2023-06-14T20:35:58.474Z,28.71
2023-06-14T20:41:00.531Z,28.81
2023-06-14T20:46:03.425Z,29.03
2023-06-14T20:51:05.348Z,29.10
2023-06-14T20:56:07.893Z,29.07
2023-06-14T21:01:09.960Z,29.18
2023-06-14T21:06:11.784Z,29.23
2023-06-14T21:11:13.691Z,29.13
2023-06-14T21:16:17.271Z,29.20
2023-06-14T21:21:19.241Z,29.20
2023-06-14T21:26:24.232Z,29.07
2023-06-14T21:31:28.524Z,29.21
2023-06-14T21:36:33.545Z,29.29
2023-06-14T21:41:39.321Z,29.35
2023-06-14T21:46:41.653Z,29.37
2023-06-14T21:51:43.658Z,29.39
2023-06-14T21:56:46.294Z,29.43
2023-06-14T22:01:48.300Z,29.45
2023-06-14T22:06:50.301Z,29.46
2023-06-14T22:11:52.569Z,29.51
2023-06-14T22:16:54.612Z,29.49
2023-06-14T22:21:58.974Z,29.52
2023-06-14T22:27:01.105Z,29.52
2023-06-14T22:32:03.281Z,29.52
2023-06-14T22:37:06.421Z,29.53
2023-06-14T22:42:08.610Z,29.52
2023-06-14T22:47:11.770Z,29.56
2023-06-14T22:52:14.964Z,29.50
2023-06-14T22:57:18.208Z,29.51
2023-06-14T23:02:20.623Z,29.54
2023-06-14T23:07:22.738Z,29.55
2023-06-14T23:12:26.550Z,29.53
2023-06-14T23:17:32.176Z,29.56
2023-06-14T23:22:43.128Z,29.52
2023-06-14T23:27:46.980Z,29.52
2023-06-14T23:32:51.097Z,29.52
2023-06-14T23:37:54.827Z,29.56
2023-06-14T23:42:57.888Z,29.57
2023-06-14T23:48:00.069Z,29.58
2023-06-14T23:53:02.382Z,29.52
2023-06-14T23:58:05.011Z,29.52
